Terminal Aerodrome Forecast
Issued by NWS Billings, MT

Home | Current Version | Previous Version | Text Only | Print | Product List | Glossary Off
Versions: 1 2 3 4 5 6 7 8 9 10 11 12 13 14 15 16 17 18 19 20 21 22 23

389
FTUS45 KBYZ 102323
TAFMLS
TAF
KMLS 102323Z 1100/1124 35010KT P6SM FEW200
     FM110200 VRB06KT P6SM SCT015 BKN150
     FM111000 VRB05KT P6SM VCFG SCT005 BKN080
     FM111500 28011KT P6SM SCT005 BKN050
     FM111800 30015G24KT P6SM SCT020 SCT120=

USA.gov is the U.S. government's official web portal to all federal, state and local government web resources and services.